Aviation Digital Data Service (ADDS)

Output produced by METARs form (1520 UTC 04 July 2015)
found at http://aviationweather.gov/adds/metars/
 
KCLE 041129Z 0412/0518 VRB02KT P6SM SKC 
     FM041500 35008KT P6SM FEW200 
     FM050200 18003KT P6SM SKC